Aérodrome :
LOGIN :

S'inscrire | Disclaimer

   EN    FR    IT 

 










Légende :    VFR   VFR Marginal   IFR   IFR Intensif   IFR Très Intensif
Visi : 
Plafond : 
>= 8 km
>= 3000ft
5 à 8 km
1000 à 3000 ft
1500m à 5 km
500 à 1000 ft
800 à 1500m
200 à 500 ft
< 800m
< 200 ft
Symboles :   Orages  Brouillard  Fortes neiges  Fortes précipitations  Vent > 20 kt
SIGMETs :   Divers  Orages  Givrage  Turbulence  Onde Orograph.  Cendres Volcan.







- Altitude de l'aérodrome : 195 ft
- Voir les cartes d'approche


LFMY - Salon de Provence

DERNIER METAR :
  • 262200Z AUTO 00000KT CAVOK 15/11 Q1018

METARs EXPIRÉS :
  • 262130Z AUTO 18002KT CAVOK 18/12 Q1018
  • 262100Z AUTO VRB02KT CAVOK 17/12 Q1017
  • 262030Z AUTO 00000KT CAVOK 18/12 Q1017
  • 262000Z AUTO 00000KT CAVOK 19/11 Q1017
  • 261930Z AUTO VRB01KT CAVOK 22/10 Q1017

TAF TAF LFMY
Valide du 26 à 03h jusqu'au 27 à 03h UTC


260600Z 2603/2703 VRB02KT CAVOK
BECMG 2608/2610 21012KT
BECMG 2618/2620 VRB02KT
Pas de NOTAMs connus pour ce terrain.



MET'MAP, la Météo Aéronautique d'un coup d'oeil ! - Copyright ORBIFLY Décembre 2007 - Disclaimer

ORBIFLY MET'MAP TEAM :

Programmation & Développement : Alexandra Zaïnal
Conception & Développement : Baudouin d'Aumeries
Co-Programmation & Développement : Marc-Olivier Méhu
Soutien technique & logistique : Manuel Goepfert

Contact : metmap@orbifly.com




SOURCES & CREDITS :

   NOAA